Time;durP1;ratioP1;P1;durP2;ratioP2;P2;SDS_P1;SDS_P2;PMS_P1;PMS_P2;Temp;Humidity;BMP_temperature;BMP_pressure;BME280_temperature;BME280_humidity;BME280_pressure;Samples;Min_cycle;Max_cycle;Signal;HPM_P1;HPM_P2
2021/05/14 00:02:03;;;;;;;9.23;5.67;;;10.40;99.90;;;;;;5210612;28;20228;-67
2021/05/14 00:04:35;;;;;;;6.53;5.33;;;10.40;99.90;;;;;;5210495;28;20301;-67
2021/05/14 00:07:07;;;;;;;7.10;5.60;;;10.30;99.90;;;;;;5210385;28;20610;-66
2021/05/14 00:09:39;;;;;;;10.33;5.97;;;10.30;99.90;;;;;;5210337;28;20210;-66
2021/05/14 00:12:11;;;;;;;6.67;5.37;;;10.30;99.90;;;;;;5210253;28;20203;-67
2021/05/14 00:14:43;;;;;;;7.83;5.93;;;10.30;99.90;;;;;;5208748;28;20213;-66
2021/05/14 00:17:15;;;;;;;7.77;5.93;;;10.30;99.90;;;;;;5210073;28;20301;-66
2021/05/14 00:19:47;;;;;;;8.27;6.10;;;10.30;99.90;;;;;;5209932;28;20225;-68
2021/05/14 00:22:19;;;;;;;6.70;5.33;;;10.30;99.90;;;;;;5209989;28;20580;-67
2021/05/14 00:24:51;;;;;;;7.63;5.50;;;10.30;99.90;;;;;;5209554;28;20202;-67
2021/05/14 00:27:23;;;;;;;9.13;5.47;;;10.30;99.90;;;;;;5209985;28;20199;-69
2021/05/14 00:29:55;;;;;;;8.50;5.63;;;10.30;99.90;;;;;;5209527;28;20256;-69
2021/05/14 00:32:27;;;;;;;7.80;5.90;;;10.30;99.90;;;;;;5209693;28;20206;-70
2021/05/14 00:34:59;;;;;;;7.90;5.77;;;10.30;99.90;;;;;;5209771;28;20210;-68
2021/05/14 00:37:31;;;;;;;8.90;6.30;;;10.30;99.90;;;;;;5210178;28;20555;-68
2021/05/14 00:40:06;;;;;;;9.47;6.30;;;10.30;99.90;;;;;;5208989;28;20253;-69
2021/05/14 00:42:38;;;;;;;11.17;5.97;;;10.20;99.90;;;;;;5209434;28;20656;-68
2021/05/14 00:45:11;;;;;;;8.17;6.00;;;10.20;99.90;;;;;;5208955;28;20238;-69
2021/05/14 00:47:42;;;;;;;8.90;6.27;;;10.10;99.90;;;;;;5209469;28;20213;-69
2021/05/14 00:50:14;;;;;;;8.20;6.10;;;10.10;99.90;;;;;;5209407;28;20612;-70
2021/05/14 00:52:47;;;;;;;10.40;6.57;;;10.00;99.90;;;;;;5209258;28;20567;-70
2021/05/14 00:55:19;;;;;;;8.77;6.30;;;10.00;99.90;;;;;;5209034;28;20553;-66
2021/05/14 00:57:51;;;;;;;11.87;6.93;;;10.00;99.90;;;;;;5209309;28;20213;-66
2021/05/14 01:00:23;;;;;;;9.43;6.80;;;9.90;99.90;;;;;;5209028;28;20234;-67
2021/05/14 01:02:55;;;;;;;9.87;6.80;;;9.90;99.90;;;;;;5209336;28;20213;-65
2021/05/14 01:05:27;;;;;;;11.00;7.80;;;9.90;99.90;;;;;;5209067;28;20210;-67
2021/05/14 01:07:59;;;;;;;10.53;7.73;;;9.90;99.90;;;;;;5207748;28;20213;-68
2021/05/14 01:10:32;;;;;;;9.80;7.40;;;9.90;99.90;;;;;;5208725;28;20214;-69
2021/05/14 01:13:04;;;;;;;10.00;6.93;;;9.80;99.90;;;;;;5209441;28;20555;-66
2021/05/14 01:15:36;;;;;;;11.13;6.97;;;9.80;99.90;;;;;;5208965;28;20206;-68
2021/05/14 01:18:08;;;;;;;11.47;7.37;;;9.80;99.90;;;;;;5208619;28;20660;-66
2021/05/14 01:20:40;;;;;;;9.87;7.83;;;9.80;99.90;;;;;;5208834;28;20206;-69
2021/05/14 01:23:13;;;;;;;10.87;7.43;;;9.80;99.90;;;;;;5208885;28;20293;-68
2021/05/14 01:25:47;;;;;;;9.47;7.17;;;9.80;99.90;;;;;;5229347;28;20212;-70
2021/05/14 01:28:19;;;;;;;11.93;8.47;;;9.70;99.90;;;;;;5229466;28;20198;-71
2021/05/14 01:30:53;;;;;;;13.40;8.67;;;9.70;99.90;;;;;;5229289;28;20224;-69
2021/05/14 01:33:25;;;;;;;13.33;8.77;;;9.70;99.90;;;;;;5229148;28;20197;-68
2021/05/14 01:35:57;;;;;;;15.20;8.97;;;9.70;99.90;;;;;;5228983;28;20209;-71
2021/05/14 01:38:29;;;;;;;14.07;9.00;;;9.70;99.90;;;;;;5229150;28;20279;-70
2021/05/14 01:41:01;;;;;;;14.60;9.03;;;9.70;99.90;;;;;;5228932;28;20205;-71
2021/05/14 01:43:33;;;;;;;15.23;9.40;;;9.70;99.90;;;;;;5229049;28;20209;-72
2021/05/14 01:46:06;;;;;;;13.13;9.00;;;9.70;99.90;;;;;;5228580;28;20436;-70
2021/05/14 01:48:38;;;;;;;13.23;8.93;;;9.70;99.90;;;;;;5229068;28;20206;-71
2021/05/14 01:51:18;;;;;;;15.63;9.40;;;9.70;99.90;;;;;;5227665;28;20566;-71
2021/05/14 01:53:51;;;;;;;13.33;9.80;;;9.70;99.90;;;;;;5227875;28;20209;-68
2021/05/14 01:56:23;;;;;;;13.20;9.33;;;9.70;99.90;;;;;;5228446;28;20206;-69
2021/05/14 01:58:55;;;;;;;13.03;9.43;;;9.70;99.90;;;;;;5228553;28;20726;-71
2021/05/14 02:01:27;;;;;;;12.87;9.53;;;9.70;99.90;;;;;;5228624;28;20621;-73
2021/05/14 02:03:59;;;;;;;13.23;8.97;;;9.70;99.90;;;;;;5227341;28;20201;-71
2021/05/14 02:06:31;;;;;;;15.17;8.83;;;9.70;99.90;;;;;;5228255;28;20219;-70
2021/05/14 02:09:04;;;;;;;11.40;8.23;;;9.70;99.90;;;;;;5228516;28;20250;-70
2021/05/14 02:11:36;;;;;;;15.93;8.43;;;9.70;99.90;;;;;;5227178;28;20640;-69
2021/05/14 02:14:08;;;;;;;10.10;7.73;;;9.70;99.90;;;;;;5228454;28;20201;-70
2021/05/14 02:16:40;;;;;;;9.87;7.17;;;9.70;99.90;;;;;;5228216;28;20205;-69
2021/05/14 02:19:13;;;;;;;11.27;6.93;;;9.70;99.90;;;;;;5228185;28;20264;-68
2021/05/14 02:21:45;;;;;;;11.10;6.33;;;9.70;99.90;;;;;;5228151;28;20209;-69
2021/05/14 02:24:17;;;;;;;9.67;6.77;;;9.70;99.90;;;;;;5228356;28;20213;-70
2021/05/14 02:26:49;;;;;;;9.20;6.57;;;9.70;99.90;;;;;;5228104;28;20216;-69
2021/05/14 02:29:21;;;;;;;8.53;6.63;;;9.70;99.90;;;;;;5228272;28;20216;-68
2021/05/14 02:31:53;;;;;;;8.73;6.50;;;9.70;99.90;;;;;;5228039;28;20209;-71
2021/05/14 02:34:26;;;;;;;10.13;6.77;;;9.70;99.90;;;;;;5228074;28;20213;-69
2021/05/14 02:36:58;;;;;;;10.50;7.13;;;9.60;99.90;;;;;;5228001;28;20202;-71
2021/05/14 02:39:31;;;;;;;11.60;7.23;;;9.60;99.90;;;;;;5227884;28;20277;-70
2021/05/14 02:42:04;;;;;;;8.87;6.57;;;9.60;99.90;;;;;;5227866;28;20299;-70
2021/05/14 02:44:36;;;;;;;10.63;7.07;;;9.60;99.90;;;;;;5228008;28;20236;-70
2021/05/14 02:47:09;;;;;;;10.43;6.60;;;9.50;99.90;;;;;;5227864;28;20264;-70
2021/05/14 02:49:41;;;;;;;8.17;6.43;;;9.50;99.90;;;;;;5227995;28;20615;-70
2021/05/14 02:52:12;;;;;;;8.53;6.13;;;9.50;99.90;;;;;;5227875;28;20205;-70
2021/05/14 02:54:44;;;;;;;7.93;5.93;;;9.50;99.90;;;;;;5227732;28;20287;-71
2021/05/14 02:57:18;;;;;;;8.93;6.23;;;9.50;99.90;;;;;;5227459;28;20213;-70
2021/05/14 02:59:50;;;;;;;9.33;6.33;;;9.40;99.90;;;;;;5227539;28;20218;-71
2021/05/14 03:02:22;;;;;;;7.20;5.43;;;9.40;99.90;;;;;;5227452;28;20208;-71
2021/05/14 03:04:53;;;;;;;10.50;5.40;;;9.50;99.90;;;;;;5227394;28;20215;-70
2021/05/14 03:07:26;;;;;;;9.93;5.30;;;9.40;99.90;;;;;;5227567;28;20619;-71
2021/05/14 03:09:58;;;;;;;8.50;5.23;;;9.50;99.90;;;;;;5227641;28;20574;-70
2021/05/14 03:12:30;;;;;;;7.40;5.07;;;9.50;99.90;;;;;;5227532;28;20213;-67
2021/05/14 03:15:04;;;;;;;6.93;5.20;;;9.50;99.90;;;;;;5227365;28;20213;-67
2021/05/14 03:17:36;;;;;;;7.00;4.43;;;9.50;99.90;;;;;;5227290;28;20205;-67
2021/05/14 03:20:09;;;;;;;7.80;4.83;;;9.50;99.90;;;;;;5227452;28;20225;-67
2021/05/14 03:22:41;;;;;;;10.77;4.83;;;9.40;99.90;;;;;;5227465;28;20206;-68
2021/05/14 03:25:13;;;;;;;5.97;4.50;;;9.50;99.90;;;;;;5227409;28;20205;-68
2021/05/14 03:27:45;;;;;;;7.33;4.33;;;9.50;99.90;;;;;;5227370;28;20204;-68
2021/05/14 03:30:17;;;;;;;6.67;3.87;;;9.50;99.90;;;;;;5226487;28;20217;-69
2021/05/14 03:32:49;;;;;;;6.20;3.83;;;9.50;99.90;;;;;;5227594;28;20220;-67
2021/05/14 03:35:21;;;;;;;4.93;3.70;;;9.50;99.90;;;;;;5227549;28;20610;-66
2021/05/14 03:37:53;;;;;;;4.70;3.90;;;9.50;99.90;;;;;;5227187;28;20305;-68
2021/05/14 03:43:01;;;;;;;6.43;3.27;;;9.50;99.90;;;;;;5227180;28;20208;-66
2021/05/14 03:45:34;;;;;;;4.67;3.37;;;9.60;99.90;;;;;;5226988;28;20248;-66
2021/05/14 03:48:19;;;;;;;6.30;3.27;;;9.60;99.90;;;;;;5227245;28;20205;-68
2021/05/14 03:50:52;;;;;;;4.90;3.57;;;9.60;99.90;;;;;;5227498;28;20198;-66
2021/05/14 03:53:24;;;;;;;3.83;3.10;;;9.60;99.90;;;;;;5209161;28;20653;-67
2021/05/14 03:55:56;;;;;;;3.80;3.00;;;9.60;99.90;;;;;;5206330;28;20688;-66
2021/05/14 03:58:28;;;;;;;5.93;3.47;;;9.70;99.90;;;;;;5206552;28;20202;-66
2021/05/14 04:01:00;;;;;;;4.67;3.07;;;9.70;99.90;;;;;;5206429;28;20230;-65
2021/05/14 04:03:32;;;;;;;7.37;3.40;;;9.80;99.90;;;;;;5206451;28;20560;-67
2021/05/14 04:06:04;;;;;;;7.17;3.87;;;9.90;99.90;;;;;;5204300;28;20203;-65
2021/05/14 04:08:35;;;;;;;6.37;3.70;;;10.10;99.90;;;;;;5216553;28;20201;-67
2021/05/14 04:11:28;;;;;;;4.10;3.30;;;10.20;99.90;;;;;;5213998;28;20680;-67
2021/05/14 04:16:50;;;;;;;5.73;3.83;;;10.30;99.90;;;;;;5218006;28;20190;-66
2021/05/14 04:19:24;;;;;;;5.50;3.70;;;10.30;99.90;;;;;;5219466;28;20558;-68
2021/05/14 04:21:57;;;;;;;5.43;3.27;;;10.30;99.90;;;;;;5212612;28;20201;-65
2021/05/14 04:24:29;;;;;;;3.63;3.20;;;10.30;99.90;;;;;;5209854;28;20225;-66
2021/05/14 04:27:01;;;;;;;5.53;3.23;;;10.30;99.90;;;;;;5209907;28;20217;-66
2021/05/14 04:29:33;;;;;;;6.10;3.10;;;10.40;99.90;;;;;;5209627;28;20225;-67
2021/05/14 04:32:05;;;;;;;3.30;3.00;;;10.40;99.90;;;;;;5209721;28;20218;-64
2021/05/14 04:34:38;;;;;;;10.03;3.67;;;10.50;99.90;;;;;;5209726;28;20217;-66
2021/05/14 04:37:12;;;;;;;6.10;3.60;;;10.50;99.90;;;;;;5208410;28;20608;-67
2021/05/14 04:39:44;;;;;;;5.73;3.20;;;10.50;99.90;;;;;;5209479;28;20316;-65
2021/05/14 04:42:16;;;;;;;5.63;3.47;;;10.60;99.90;;;;;;5209535;28;20595;-66
2021/05/14 04:44:48;;;;;;;5.73;3.60;;;10.70;99.90;;;;;;5209736;28;20719;-66
2021/05/14 04:47:20;;;;;;;6.73;4.07;;;10.80;99.90;;;;;;5209508;28;20265;-69
2021/05/14 04:49:52;;;;;;;5.93;3.83;;;10.90;99.90;;;;;;5209491;28;20206;-68
2021/05/14 04:52:25;;;;;;;7.30;3.60;;;11.00;99.90;;;;;;5209195;28;20212;-69
2021/05/14 04:54:58;;;;;;;6.10;4.03;;;11.10;99.90;;;;;;5209148;28;20679;-69
2021/05/14 04:57:30;;;;;;;3.70;2.67;;;11.20;99.90;;;;;;5209115;28;20202;-68
2021/05/14 05:00:03;;;;;;;4.17;2.47;;;11.30;99.90;;;;;;5209180;28;20234;-68
2021/05/14 05:02:36;;;;;;;7.43;2.50;;;11.40;99.90;;;;;;5215908;28;20190;-69
2021/05/14 05:05:09;;;;;;;2.83;2.03;;;11.60;99.90;;;;;;5216325;28;20269;-69
2021/05/14 05:07:41;;;;;;;2.97;2.03;;;11.80;99.90;;;;;;5216879;28;20186;-69
2021/05/14 05:10:15;;;;;;;2.37;2.10;;;11.80;99.90;;;;;;5219118;28;20202;-68
2021/05/14 05:12:47;;;;;;;1.60;1.50;;;11.90;99.90;;;;;;5210058;28;20198;-69
2021/05/14 05:15:19;;;;;;;3.93;1.80;;;11.80;99.90;;;;;;5207929;28;20555;-68
2021/05/14 05:17:51;;;;;;;4.73;1.77;;;11.60;99.90;;;;;;5208615;28;20240;-68
2021/05/14 05:20:23;;;;;;;4.17;2.20;;;11.60;99.90;;;;;;5208749;28;20275;-67
2021/05/14 05:22:55;;;;;;;2.17;1.70;;;11.70;99.90;;;;;;5208829;28;20198;-69
2021/05/14 05:25:27;;;;;;;3.87;1.60;;;11.70;99.90;;;;;;5208582;28;20222;-67
2021/05/14 05:28:03;;;;;;;1.70;1.47;;;11.50;99.90;;;;;;5208647;28;20208;-69
2021/05/14 05:30:35;;;;;;;2.90;1.63;;;11.50;99.90;;;;;;5206524;28;20198;-68
2021/05/14 05:33:07;;;;;;;2.07;1.47;;;11.70;99.90;;;;;;5208129;28;20194;-68
2021/05/14 05:35:39;;;;;;;3.17;1.70;;;11.90;99.90;;;;;;5208018;28;20701;-68
2021/05/14 05:38:18;;;;;;;2.07;1.50;;;11.90;99.90;;;;;;5207733;28;20190;-68
2021/05/14 05:40:51;;;;;;;2.13;1.50;;;12.00;99.90;;;;;;5207917;28;20684;-67
2021/05/14 05:43:22;;;;;;;2.47;1.60;;;12.00;99.90;;;;;;5207795;28;20230;-70
2021/05/14 05:45:54;;;;;;;3.63;1.90;;;12.10;99.90;;;;;;5207551;28;20277;-68
2021/05/14 05:48:26;;;;;;;2.30;1.63;;;12.10;99.90;;;;;;5207966;28;20605;-69
2021/05/14 05:50:58;;;;;;;4.27;1.83;;;12.20;99.90;;;;;;5207480;28;20664;-70
2021/05/14 05:53:30;;;;;;;2.53;1.97;;;12.30;99.90;;;;;;5206414;28;20687;-68
2021/05/14 05:56:02;;;;;;;2.77;1.97;;;12.60;99.90;;;;;;5207435;28;20206;-69
2021/05/14 05:58:35;;;;;;;2.07;1.70;;;12.80;99.90;;;;;;5207493;28;20199;-69
2021/05/14 06:01:07;;;;;;;2.00;1.73;;;12.90;99.90;;;;;;5206192;28;20222;-69
2021/05/14 06:03:39;;;;;;;3.37;1.70;;;13.40;99.90;;;;;;5207603;28;20654;-68
2021/05/14 06:06:11;;;;;;;1.80;1.40;;;14.60;99.90;;;;;;5207383;28;20217;-69
2021/05/14 06:08:43;;;;;;;1.50;1.20;;;16.30;99.90;;;;;;5202663;28;20206;-69
2021/05/14 06:11:15;;;;;;;3.42;1.15;;;18.70;99.90;;;;;;5206273;28;20209;-68
2021/05/14 06:13:47;;;;;;;1.27;0.93;;;19.70;99.90;;;;;;5202319;28;20206;-68
2021/05/14 06:16:19;;;;;;;2.80;1.20;;;20.50;99.90;;;;;;5204277;28;20209;-67
2021/05/14 06:21:53;;;;;;;2.42;1.35;;;19.70;99.90;;;;;;5201596;28;20277;-69
2021/05/14 06:24:26;;;;;;;4.15;1.30;;;18.80;99.90;;;;;;5215198;28;20251;-68
2021/05/14 06:27:08;;;;;;;2.42;1.05;;;18.90;99.90;;;;;;5215264;28;20198;-70
2021/05/14 06:29:42;;;;;;;2.65;0.90;;;20.00;99.90;;;;;;5227471;28;20547;-70
2021/05/14 06:32:14;;;;;;;1.67;0.80;;;21.60;99.90;;;;;;5227792;28;20197;-67
2021/05/14 06:34:46;;;;;;;0.88;0.70;;;22.40;96.90;;;;;;5227858;28;20198;-69
2021/05/14 06:37:19;;;;;;;2.55;0.90;;;23.10;94.70;;;;;;5209972;28;20194;-68
2021/05/14 06:39:51;;;;;;;1.05;0.60;;;24.10;92.80;;;;;;5206089;28;20576;-68
2021/05/14 06:42:23;;;;;;;1.60;0.90;;;24.70;89.70;;;;;;5206692;28;20217;-69
2021/05/14 06:44:55;;;;;;;0.93;0.90;;;25.20;87.10;;;;;;5206347;28;20591;-69
2021/05/14 06:47:27;;;;;;;0.75;0.60;;;26.10;83.30;;;;;;5205976;28;20292;-69
2021/05/14 06:50:04;;;;;;;0.88;0.70;;;25.70;78.70;;;;;;5207104;28;20217;-69
2021/05/14 06:52:37;;;;;;;1.33;0.82;;;25.40;78.80;;;;;;5206869;28;20285;-68
2021/05/14 06:55:10;;;;;;;1.13;0.80;;;25.30;77.40;;;;;;5206925;28;20201;-69
2021/05/14 06:57:41;;;;;;;1.00;0.60;;;25.10;77.60;;;;;;5206488;28;20202;-70
2021/05/14 07:00:14;;;;;;;2.25;0.82;;;24.80;76.50;;;;;;5206354;28;20707;-69
2021/05/14 07:02:47;;;;;;;1.00;0.90;;;23.90;80.60;;;;;;5206632;28;20194;-70
2021/05/14 07:05:19;;;;;;;2.03;1.00;;;23.50;81.40;;;;;;5209669;28;20217;-69
2021/05/14 07:07:53;;;;;;;3.17;0.82;;;23.00;81.90;;;;;;5204754;28;20202;-68
2021/05/14 07:10:27;;;;;;;7.38;1.20;;;22.40;85.00;;;;;;5200479;28;20213;-69
2021/05/14 07:12:59;;;;;;;2.83;1.30;;;22.50;84.20;;;;;;5206505;28;20225;-68
2021/05/14 07:15:31;;;;;;;2.22;1.13;;;21.80;85.30;;;;;;5206785;28;20214;-68
2021/05/14 07:18:04;;;;;;;1.00;0.90;;;20.70;88.50;;;;;;5206739;28;20212;-67
2021/05/14 07:20:36;;;;;;;0.80;0.80;;;20.10;89.60;;;;;;5206568;28;20218;-68
2021/05/14 07:23:09;;;;;;;0.90;0.77;;;19.60;90.80;;;;;;5206961;28;20202;-69
2021/05/14 07:25:42;;;;;;;2.35;1.20;;;19.30;91.40;;;;;;5206227;28;20194;-67
2021/05/14 07:28:14;;;;;;;3.80;1.25;;;18.70;92.10;;;;;;5206340;28;20194;-67
2021/05/14 07:30:46;;;;;;;1.35;1.10;;;17.70;94.20;;;;;;5207011;28;20213;-67
2021/05/14 07:33:19;;;;;;;5.00;1.20;;;17.30;96.30;;;;;;5207528;28;20638;-68
2021/05/14 07:35:51;;;;;;;2.50;1.30;;;17.20;97.70;;;;;;5208190;28;20194;-73
2021/05/14 07:38:23;;;;;;;3.22;1.40;;;16.90;99.10;;;;;;5205842;28;20264;-68
2021/05/14 07:40:55;;;;;;;2.03;1.20;;;16.90;99.90;;;;;;5212192;28;20245;-69
2021/05/14 07:43:27;;;;;;;4.03;1.30;;;16.80;99.90;;;;;;5216307;28;20222;-68
2021/05/14 07:45:59;;;;;;;2.75;1.58;;;16.60;99.90;;;;;;5216453;28;20225;-68
2021/05/14 07:48:32;;;;;;;4.97;1.55;;;16.40;99.90;;;;;;5213921;28;20193;-68
2021/05/14 07:51:04;;;;;;;2.20;1.48;;;16.60;99.90;;;;;;5213870;28;20190;-69
2021/05/14 07:53:37;;;;;;;1.70;1.27;;;16.60;99.90;;;;;;5217555;28;20195;-70
2021/05/14 07:56:09;;;;;;;2.10;1.60;;;15.90;99.90;;;;;;5219176;28;20209;-68
2021/05/14 07:58:41;;;;;;;4.70;1.30;;;15.70;99.90;;;;;;5213833;28;20206;-68
2021/05/14 08:01:14;;;;;;;1.63;1.20;;;15.70;99.90;;;;;;5216897;28;20309;-69
2021/05/14 08:03:47;;;;;;;4.50;1.73;;;15.90;99.90;;;;;;5212389;28;20189;-70
2021/05/14 08:06:20;;;;;;;1.38;1.20;;;15.50;99.90;;;;;;5208768;28;20584;-70
2021/05/14 08:08:52;;;;;;;2.03;1.13;;;15.40;99.90;;;;;;5209778;28;20205;-70
2021/05/14 08:11:24;;;;;;;1.53;1.10;;;15.50;99.90;;;;;;5210189;28;20574;-70
2021/05/14 08:13:56;;;;;;;4.83;1.20;;;15.60;99.90;;;;;;5209842;28;20290;-70
2021/05/14 08:16:28;;;;;;;3.90;1.50;;;15.70;99.90;;;;;;5209198;28;20214;-70
2021/05/14 08:19:00;;;;;;;8.77;1.50;;;15.80;99.90;;;;;;5209853;28;20252;-68
2021/05/14 08:21:32;;;;;;;4.23;1.40;;;15.90;99.90;;;;;;5209476;28;20731;-69
2021/05/14 08:24:05;;;;;;;5.30;1.50;;;15.80;99.90;;;;;;5209508;28;20191;-69
2021/05/14 08:26:38;;;;;;;1.40;1.05;;;15.90;99.90;;;;;;5209053;28;20206;-69
2021/05/14 08:29:11;;;;;;;2.20;1.23;;;15.80;99.90;;;;;;5207957;28;20221;-67
2021/05/14 08:31:43;;;;;;;2.33;1.50;;;16.00;99.90;;;;;;5207844;28;20218;-69
2021/05/14 08:34:15;;;;;;;2.63;1.10;;;16.40;99.90;;;;;;5208639;28;20608;-68
2021/05/14 08:36:47;;;;;;;1.52;1.10;;;16.60;99.90;;;;;;5208850;28;20209;-70
2021/05/14 08:39:19;;;;;;;2.63;1.30;;;16.70;99.90;;;;;;5229844;28;20562;-68
2021/05/14 08:41:53;;;;;;;1.80;1.20;;;17.00;99.90;;;;;;5215346;28;20233;-69
2021/05/14 08:44:26;;;;;;;1.77;1.02;;;16.90;99.90;;;;;;5208482;28;20284;-69
2021/05/14 08:46:58;;;;;;;3.00;1.40;;;17.20;99.90;;;;;;5209069;28;20198;-67
2021/05/14 08:49:31;;;;;;;3.13;1.20;;;17.00;99.90;;;;;;5208703;28;20409;-69
2021/05/14 08:52:05;;;;;;;1.60;1.30;;;16.80;99.90;;;;;;5208300;28;20285;-71
2021/05/14 08:54:42;;;;;;;1.42;1.20;;;16.70;99.90;;;;;;5208648;28;20259;-65
2021/05/14 08:57:14;;;;;;;2.13;1.20;;;16.50;99.90;;;;;;5201643;28;20202;-69
2021/05/14 08:59:46;;;;;;;1.87;1.37;;;16.40;99.90;;;;;;5207886;28;20238;-70
2021/05/14 09:02:18;;;;;;;2.00;1.30;;;16.40;99.90;;;;;;5208580;28;20226;-69
2021/05/14 09:04:50;;;;;;;2.37;1.30;;;16.50;99.90;;;;;;5208145;28;20200;-68
2021/05/14 09:07:22;;;;;;;4.45;0.95;;;16.60;99.90;;;;;;5208695;28;20206;-68
2021/05/14 09:10:09;;;;;;;1.57;0.90;;;16.40;99.90;;;;;;5208636;28;20198;-68
2021/05/14 09:12:45;;;;;;;5.53;1.20;;;16.40;99.90;;;;;;5208623;28;20249;-69
2021/05/14 09:15:35;;;;;;;1.80;1.40;;;16.40;99.90;;;;;;5208555;28;20201;-68
2021/05/14 09:18:11;;;;;;;1.70;1.60;;;16.00;99.90;;;;;;5208952;28;20254;-68
2021/05/14 09:20:55;;;;;;;2.67;1.83;;;15.80;99.90;;;;;;5209235;28;20658;-67
2021/05/14 09:23:33;;;;;;;1.80;1.60;;;15.90;99.90;;;;;;5208781;28;20293;-67
2021/05/14 09:26:09;;;;;;;3.90;1.83;;;16.00;99.90;;;;;;5208133;28;20203;-69
2021/05/14 09:28:47;;;;;;;2.00;1.33;;;16.00;99.90;;;;;;5208665;28;20198;-70
2021/05/14 09:31:24;;;;;;;7.17;1.60;;;15.90;99.90;;;;;;5208402;28;20302;-67
2021/05/14 09:33:59;;;;;;;1.70;1.50;;;16.00;99.90;;;;;;5657933;22;20236;-68
2021/05/14 09:36:34;;;;;;;7.07;1.77;;;15.90;99.90;;;;;;5203093;28;20221;-72
2021/05/14 09:39:07;;;;;;;1.83;1.30;;;15.80;99.90;;;;;;5196864;28;20218;-69
2021/05/14 09:41:42;;;;;;;1.77;1.20;;;15.60;99.90;;;;;;5205756;28;20245;-68
2021/05/14 09:44:16;;;;;;;2.20;1.53;;;15.80;99.90;;;;;;5206627;28;20191;-68
2021/05/14 09:46:52;;;;;;;4.53;1.57;;;16.10;99.90;;;;;;5208005;28;20198;-68
2021/05/14 09:49:28;;;;;;;1.70;1.50;;;16.40;99.90;;;;;;5207851;28;20205;-69
2021/05/14 09:52:05;;;;;;;2.03;1.57;;;16.50;99.90;;;;;;5207577;28;20285;-69
2021/05/14 09:54:43;;;;;;;3.53;1.60;;;16.50;99.90;;;;;;5208045;28;20194;-68
2021/05/14 09:59:59;;;;;;;2.13;1.50;;;16.50;99.90;;;;;;5208124;28;20190;-67
2021/05/14 10:02:39;;;;;;;3.07;1.63;;;16.60;99.90;;;;;;5207889;28;20279;-68
2021/05/14 10:05:12;;;;;;;3.40;1.80;;;16.80;99.90;;;;;;5207727;28;20221;-66
2021/05/14 10:07:46;;;;;;;1.92;1.73;;;16.90;99.90;;;;;;5206985;28;20198;-68
2021/05/14 10:10:21;;;;;;;1.73;1.57;;;17.10;99.90;;;;;;5206166;28;20209;-70
2021/05/14 10:12:54;;;;;;;2.55;1.60;;;17.10;99.90;;;;;;5206778;28;20214;-68
2021/05/14 10:15:26;;;;;;;3.88;1.70;;;17.10;99.90;;;;;;5207216;28;20201;-67
2021/05/14 10:18:00;;;;;;;2.90;1.90;;;16.90;99.90;;;;;;5207337;28;20201;-69
2021/05/14 10:20:35;;;;;;;2.28;1.55;;;16.90;99.90;;;;;;5207224;28;20198;-67
2021/05/14 10:23:09;;;;;;;3.17;1.52;;;16.80;99.90;;;;;;5207249;28;20213;-68
2021/05/14 10:25:47;;;;;;;3.40;1.50;;;16.90;99.90;;;;;;5207324;28;20197;-68
2021/05/14 10:28:24;;;;;;;1.92;1.73;;;16.80;99.90;;;;;;5206341;28;20206;-70
2021/05/14 10:31:06;;;;;;;2.47;1.70;;;16.80;99.90;;;;;;5207214;28;20210;-68
2021/05/14 10:33:56;;;;;;;1.73;1.63;;;16.40;99.90;;;;;;5206555;28;20228;-67
2021/05/14 10:39:55;;;;;;;3.83;1.80;;;16.50;99.90;;;;;;5168976;28;20218;-54
2021/05/14 10:45:42;;;;;;;5.53;2.00;;;16.20;99.90;;;;;;5199999;28;20232;-57
2021/05/14 10:48:20;;;;;;;2.20;2.00;;;16.30;99.90;;;;;;5187473;28;20641;-55
2021/05/14 10:50:53;;;;;;;3.23;1.90;;;16.30;99.90;;;;;;5207653;28;20291;-53
2021/05/14 10:53:33;;;;;;;8.70;2.73;;;16.30;99.90;;;;;;5206608;28;20202;-59
2021/05/14 10:56:08;;;;;;;3.53;2.47;;;16.20;99.90;;;;;;5192430;28;20210;-54
2021/05/14 10:58:41;;;;;;;3.60;2.50;;;16.00;99.90;;;;;;5197748;28;20668;-55
2021/05/14 11:01:37;;;;;;;3.07;2.10;;;16.00;99.90;;;;;;5205799;28;20237;-55
2021/05/14 11:04:14;;;;;;;6.35;3.50;;;16.00;99.90;;;;;;5204741;28;20198;-47
2021/05/14 11:06:49;;;;;;;3.20;2.80;;;15.90;99.90;;;;;;5206332;28;20640;-58
2021/05/14 11:09:24;;;;;;;7.95;2.92;;;15.70;99.90;;;;;;5206423;28;20276;-55
2021/05/14 11:12:06;;;;;;;5.77;1.97;;;15.60;99.90;;;;;;5206071;28;20224;-57
2021/05/14 11:14:48;;;;;;;3.10;2.37;;;15.70;99.90;;;;;;5204862;28;20194;-57
2021/05/14 11:57:30;;;;;;;3.90;2.90;;;15.30;99.90;;;;;;5278284;27;20537;-72
2021/05/14 12:00:06;;;;;;;2.87;2.43;;;15.30;99.90;;;;;;5264081;28;20648;-69
2021/05/14 12:02:45;;;;;;;2.57;2.20;;;15.50;99.90;;;;;;5262891;28;20230;-71
2021/05/14 12:05:19;;;;;;;3.23;2.43;;;15.60;99.90;;;;;;5263218;28;20282;-69
2021/05/14 12:07:53;;;;;;;2.70;2.20;;;15.70;99.90;;;;;;5266184;28;20227;-70
2021/05/14 12:10:25;;;;;;;2.50;2.30;;;15.60;99.90;;;;;;5264557;28;20627;-70
2021/05/14 12:12:59;;;;;;;3.73;2.13;;;15.60;99.90;;;;;;5247808;28;20626;-69
2021/05/14 12:15:31;;;;;;;3.10;2.80;;;15.60;99.90;;;;;;5263785;28;20568;-70
2021/05/14 12:22:09;;;;;;;6.17;2.20;;;15.30;99.90;;;;;;5266199;28;20265;-70
2021/05/14 12:24:42;;;;;;;2.90;2.20;;;15.20;99.90;;;;;;5264617;28;20196;-69
2021/05/14 12:27:23;;;;;;;4.20;2.30;;;15.00;99.90;;;;;;5266250;28;20534;-70
2021/05/14 12:30:00;;;;;;;5.50;2.33;;;14.80;99.90;;;;;;5247931;28;20250;-69
2021/05/14 12:32:32;;;;;;;6.63;2.00;;;14.80;99.90;;;;;;5265074;28;20198;-70
2021/05/14 12:35:06;;;;;;;2.60;2.40;;;14.90;99.90;;;;;;5265466;28;20689;-71
2021/05/14 12:37:38;;;;;;;4.10;1.90;;;15.00;99.90;;;;;;5265928;28;20191;-70
2021/05/14 12:40:26;;;;;;;3.80;2.23;;;15.20;99.90;;;;;;5265507;28;20188;-73
2021/05/14 12:43:06;;;;;;;2.37;2.00;;;15.20;99.90;;;;;;5264162;28;20554;-70
2021/05/14 12:45:40;;;;;;;5.87;2.60;;;15.20;99.90;;;;;;5265656;28;20557;-70
2021/05/14 12:48:22;;;;;;;3.13;1.93;;;15.30;99.90;;;;;;5263125;28;20192;-69
2021/05/14 12:50:55;;;;;;;4.37;2.10;;;15.20;99.90;;;;;;5265328;28;20203;-69
2021/05/14 12:53:27;;;;;;;2.13;1.80;;;15.30;99.90;;;;;;5265496;28;20196;-70
2021/05/14 12:55:59;;;;;;;2.40;1.90;;;15.20;99.90;;;;;;5263760;28;20244;-70
2021/05/14 12:58:31;;;;;;;2.33;1.70;;;15.00;99.90;;;;;;5250963;28;20212;-70
2021/05/14 13:01:03;;;;;;;1.83;1.63;;;15.10;99.90;;;;;;5251093;28;20554;-71
2021/05/14 13:03:35;;;;;;;2.07;1.47;;;15.30;99.90;;;;;;5250740;28;20207;-70
2021/05/14 13:06:10;;;;;;;2.00;1.50;;;15.30;99.90;;;;;;5250838;28;20587;-69
2021/05/14 13:08:46;;;;;;;2.90;1.77;;;15.30;99.90;;;;;;5250379;28;20193;-60
2021/05/14 13:11:21;;;;;;;2.43;1.40;;;15.00;99.90;;;;;;5250477;28;20598;-71
2021/05/14 13:13:53;;;;;;;1.20;1.10;;;14.80;99.90;;;;;;5250025;28;20237;-70
2021/05/14 13:16:25;;;;;;;1.63;1.27;;;14.60;99.90;;;;;;5249149;28;20229;-70
2021/05/14 13:18:58;;;;;;;2.43;1.23;;;14.50;99.90;;;;;;5248650;28;20639;-71
2021/05/14 13:21:31;;;;;;;1.40;1.10;;;14.30;99.90;;;;;;5250757;28;20192;-71
2021/05/14 13:24:04;;;;;;;2.17;1.40;;;14.40;99.90;;;;;;5250694;28;20259;-72
2021/05/14 13:26:36;;;;;;;3.07;1.50;;;14.30;99.90;;;;;;5251032;28;20199;-71
2021/05/14 13:29:08;;;;;;;2.27;1.30;;;14.30;99.90;;;;;;5250741;28;20279;-70
2021/05/14 13:35:08;;;;;;;1.77;1.40;;;14.40;99.90;;;;;;5250168;28;20204;-71
2021/05/14 13:37:40;;;;;;;2.40;1.43;;;14.60;99.90;;;;;;5250330;28;20189;-71
2021/05/14 13:40:13;;;;;;;2.20;1.90;;;14.60;99.90;;;;;;5250075;28;20193;-72
2021/05/14 13:42:45;;;;;;;6.13;2.17;;;14.40;99.90;;;;;;5250495;28;20632;-71
2021/05/14 13:45:17;;;;;;;2.33;2.03;;;14.20;99.90;;;;;;5250324;28;20189;-71
2021/05/14 13:51:36;;;;;;;2.23;1.43;;;14.30;99.90;;;;;;5250035;28;20230;-72
2021/05/14 13:54:08;;;;;;;5.43;2.07;;;14.30;99.90;;;;;;5250550;28;20213;-70
2021/05/14 13:56:40;;;;;;;4.20;1.90;;;14.20;99.90;;;;;;5250173;28;20251;-70
2021/05/14 13:59:12;;;;;;;2.20;1.90;;;14.20;99.90;;;;;;5250399;28;20195;-71
2021/05/14 14:01:44;;;;;;;2.57;2.00;;;14.20;99.90;;;;;;5250122;28;20232;-68
2021/05/14 14:08:02;;;;;;;3.00;2.37;;;14.10;99.90;;;;;;5249584;28;20168;-70
2021/05/14 14:10:34;;;;;;;3.70;2.67;;;14.00;99.90;;;;;;5250270;28;20193;-71
2021/05/14 14:13:08;;;;;;;3.80;2.80;;;14.00;99.90;;;;;;5249235;28;20219;-71
2021/05/14 14:15:40;;;;;;;4.30;2.47;;;13.90;99.90;;;;;;5249945;28;20547;-68
2021/05/14 14:18:12;;;;;;;3.37;2.00;;;14.00;99.90;;;;;;5250233;28;20193;-67
2021/05/14 14:20:45;;;;;;;2.70;1.97;;;14.20;99.90;;;;;;5250872;28;20193;-73
2021/05/14 14:23:17;;;;;;;4.43;2.40;;;14.40;99.90;;;;;;5252348;28;20209;-70
2021/05/14 14:25:50;;;;;;;2.30;2.00;;;14.50;99.90;;;;;;5252205;28;20662;-66
2021/05/14 14:28:22;;;;;;;2.47;1.90;;;14.50;99.90;;;;;;5251612;28;20192;-68
2021/05/14 14:30:54;;;;;;;5.67;2.10;;;14.60;99.90;;;;;;5251385;28;20197;-69
2021/05/14 14:33:26;;;;;;;6.23;2.10;;;14.70;99.90;;;;;;5252612;28;20246;-70